createdAt,value
2023-04-02T00:02:33.704Z,7.82
2023-04-02T00:05:50.935Z,7.79
2023-04-02T00:08:56.294Z,7.63
2023-04-02T00:12:00.417Z,7.46
2023-04-02T00:15:02.209Z,7.26
2023-04-02T00:18:05.016Z,7.21
2023-04-02T00:21:34.614Z,7.18
2023-04-02T00:24:39.273Z,7.14
2023-04-02T00:27:41.495Z,7.07
2023-04-02T00:31:01.500Z,7.05
2023-04-02T00:34:04.926Z,6.99
2023-04-02T00:37:06.968Z,6.94
2023-04-02T00:40:25.983Z,6.88
2023-04-02T00:43:30.872Z,6.84
2023-04-02T00:46:48.424Z,6.81
2023-04-02T00:50:01.375Z,6.78
2023-04-02T00:53:14.877Z,6.75
2023-04-02T00:56:44.380Z,6.70
2023-04-02T00:59:57.246Z,6.66
2023-04-02T01:03:30.459Z,6.63
2023-04-02T01:06:37.280Z,6.55
2023-04-02T01:10:08.145Z,6.57
2023-04-02T01:13:34.892Z,6.36
2023-04-02T01:16:50.480Z,6.46
2023-04-02T01:20:10.344Z,6.42
2023-04-02T01:23:36.572Z,6.55
2023-04-02T01:26:57.945Z,6.53
2023-04-02T01:30:01.698Z,6.51
2023-04-02T01:33:04.071Z,6.47
2023-04-02T01:36:08.532Z,6.38
2023-04-02T01:39:24.591Z,6.29
2023-04-02T01:42:57.212Z,6.19
2023-04-02T01:46:00.332Z,6.16
2023-04-02T01:49:11.337Z,6.07
2023-04-02T01:52:19.394Z,6.02
2023-04-02T01:55:33.086Z,5.98
2023-04-02T01:58:35.805Z,5.93
2023-04-02T02:01:46.213Z,5.97
2023-04-02T02:04:48.754Z,5.93
2023-04-02T02:07:52.080Z,5.95
2023-04-02T02:10:54.011Z,5.97
2023-04-02T02:14:05.427Z,5.95
2023-04-02T02:17:13.475Z,5.95
2023-04-02T02:20:16.344Z,5.96
2023-04-02T02:23:19.515Z,5.92
2023-04-02T02:26:23.975Z,5.92
2023-04-02T02:29:28.482Z,5.91
2023-04-02T02:32:33.194Z,5.98
2023-04-02T02:35:54.727Z,6.04
2023-04-02T02:38:58.377Z,6.06
2023-04-02T02:42:12.005Z,6.01
2023-04-02T02:45:18.049Z,5.97
2023-04-02T02:48:34.245Z,5.95
2023-04-02T02:51:50.343Z,5.92
2023-04-02T02:54:59.412Z,5.81
2023-04-02T02:58:32.450Z,5.76
2023-04-02T03:01:34.369Z,5.76
2023-04-02T03:04:36.385Z,5.77
2023-04-02T03:07:38.430Z,5.78
2023-04-02T03:10:48.699Z,5.75
2023-04-02T03:13:54.665Z,5.83
2023-04-02T03:17:09.111Z,5.87
2023-04-02T03:20:17.780Z,5.86
2023-04-02T03:23:46.264Z,5.91
2023-04-02T03:27:00.758Z,5.93
2023-04-02T03:30:25.774Z,5.92
2023-04-02T03:33:29.837Z,5.85
2023-04-02T03:36:43.804Z,5.80
2023-04-02T03:40:08.978Z,5.78
2023-04-02T03:43:26.053Z,5.76
2023-04-02T03:47:32.844Z,5.70
2023-04-02T03:51:07.099Z,5.65
2023-04-02T03:54:16.094Z,5.63
2023-04-02T03:57:38.599Z,5.62
2023-04-02T04:00:51.934Z,5.61
2023-04-02T04:03:56.019Z,5.63
2023-04-02T04:07:00.762Z,5.61
2023-04-02T04:10:04.619Z,5.64
2023-04-02T04:13:12.536Z,5.63
2023-04-02T04:16:20.089Z,5.68
2023-04-02T04:19:25.040Z,5.68
2023-04-02T04:22:33.781Z,5.68
2023-04-02T04:25:37.311Z,5.70
2023-04-02T04:28:57.272Z,5.71
2023-04-02T04:32:16.934Z,5.75
2023-04-02T04:35:28.753Z,5.77
2023-04-02T04:38:40.854Z,5.79
2023-04-02T04:41:43.767Z,5.78
2023-04-02T04:44:53.662Z,5.75
2023-04-02T04:48:00.419Z,5.74
2023-04-02T04:51:37.702Z,5.76
2023-04-02T04:54:39.856Z,5.78
2023-04-02T04:57:42.887Z,5.76
2023-04-02T05:00:56.869Z,5.72
2023-04-02T05:04:11.151Z,5.64
2023-04-02T05:07:27.813Z,5.59
2023-04-02T05:10:42.412Z,5.54
2023-04-02T05:14:16.483Z,5.55
2023-04-02T05:17:33.862Z,5.52
2023-04-02T05:20:48.176Z,5.55
2023-04-02T05:24:25.032Z,5.56
2023-04-02T05:27:44.753Z,5.68
2023-04-02T05:31:28.059Z,5.79
2023-04-02T05:34:37.375Z,5.95
2023-04-02T05:37:39.976Z,6.21
2023-04-02T05:40:46.392Z,6.43
2023-04-02T05:43:51.336Z,6.62
2023-04-02T05:47:07.110Z,6.77
2023-04-02T05:50:09.590Z,6.90
2023-04-02T05:53:20.936Z,7.01
2023-04-02T05:56:31.992Z,7.14
2023-04-02T05:59:48.995Z,7.18
2023-04-02T06:03:07.403Z,7.23
2023-04-02T06:06:20.732Z,7.35
2023-04-02T06:09:22.327Z,7.53
2023-04-02T06:12:47.542Z,7.48
2023-04-02T06:15:49.494Z,7.56
2023-04-02T06:18:51.390Z,7.87
2023-04-02T06:22:00.629Z,8.07
2023-04-02T06:25:08.972Z,8.55
2023-04-02T06:28:17.961Z,9.14
2023-04-02T06:31:35.988Z,9.82
2023-04-02T06:34:39.753Z,10.42
2023-04-02T06:37:46.171Z,11.08
2023-04-02T06:40:53.253Z,11.92
2023-04-02T06:44:00.171Z,12.99
2023-04-02T06:47:13.176Z,13.72
2023-04-02T06:50:39.712Z,14.67
2023-04-02T06:53:47.643Z,17.16
2023-04-02T06:56:54.195Z,15.77
2023-04-02T06:59:55.941Z,17.23
2023-04-02T07:03:00.917Z,17.37
2023-04-02T07:06:03.561Z,18.30
2023-04-02T07:09:05.637Z,16.74
2023-04-02T07:12:13.891Z,17.32
2023-04-02T07:15:19.868Z,16.75
2023-04-02T07:18:30.790Z,17.85
2023-04-02T07:21:32.557Z,17.28
2023-04-02T07:24:34.188Z,17.81
2023-04-02T07:27:36.331Z,19.21
2023-04-02T07:30:38.053Z,21.02
2023-04-02T07:33:41.184Z,18.88
2023-04-02T07:36:43.775Z,20.43
2023-04-02T07:39:45.596Z,20.76
2023-04-02T07:42:47.706Z,21.78
2023-04-02T07:45:51.490Z,24.49
2023-04-02T07:48:53.227Z,24.46
2023-04-02T07:51:54.893Z,24.03
2023-04-02T07:54:56.564Z,23.74
2023-04-02T07:57:59.981Z,23.23
2023-04-02T08:01:04.542Z,21.13
2023-04-02T08:04:07.902Z,20.59
2023-04-02T08:07:09.639Z,22.54
2023-04-02T08:10:12.493Z,23.42
2023-04-02T08:13:16.228Z,22.88
2023-04-02T08:16:18.062Z,23.46
2023-04-02T08:19:20.097Z,23.54
2023-04-02T08:22:21.756Z,24.62
2023-04-02T08:25:23.734Z,27.17
2023-04-02T08:28:25.402Z,28.20
2023-04-02T08:31:27.618Z,28.27
2023-04-02T08:34:29.461Z,30.91
2023-04-02T08:37:31.088Z,33.34
2023-04-02T08:40:38.978Z,32.60
2023-04-02T08:43:40.973Z,32.61
2023-04-02T08:46:55.733Z,34.09
2023-04-02T08:50:15.387Z,36.56
2023-04-02T08:53:24.815Z,35.25
2023-04-02T08:56:37.057Z,37.25
2023-04-02T08:59:40.901Z,36.43
2023-04-02T09:02:50.779Z,33.28
2023-04-02T09:05:53.513Z,34.03
2023-04-02T09:08:56.941Z,35.53
2023-04-02T09:12:04.291Z,38.54
2023-04-02T09:15:18.563Z,39.29
2023-04-02T09:18:21.004Z,34.09
2023-04-02T09:21:40.574Z,36.24
2023-04-02T09:24:42.189Z,33.26
2023-04-02T09:27:48.827Z,37.89
2023-04-02T09:31:16.129Z,41.19
2023-04-02T09:34:36.156Z,41.75
2023-04-02T09:37:37.784Z,42.17
2023-04-02T09:40:51.137Z,39.14
2023-04-02T09:44:12.279Z,41.64
2023-04-02T09:47:27.307Z,38.62
2023-04-02T09:50:32.136Z,37.24
2023-04-02T09:53:36.853Z,35.79
2023-04-02T09:56:40.550Z,36.13
2023-04-02T09:59:42.183Z,35.70
2023-04-02T10:02:45.962Z,29.04
2023-04-02T10:05:48.843Z,28.06
2023-04-02T10:08:51.685Z,28.52
2023-04-02T10:11:55.194Z,24.40
2023-04-02T10:14:59.689Z,21.19
2023-04-02T10:18:16.546Z,19.96
2023-04-02T10:21:38.659Z,19.38
2023-04-02T10:24:40.713Z,19.44
2023-04-02T10:27:55.884Z,19.90
2023-04-02T10:31:11.359Z,20.59
2023-04-02T10:34:24.883Z,20.76
2023-04-02T10:37:45.780Z,18.78
2023-04-02T10:41:03.056Z,18.59
2023-04-02T10:44:49.708Z,18.30
2023-04-02T10:47:58.204Z,18.16
2023-04-02T10:51:02.593Z,18.63
2023-04-02T10:54:33.873Z,18.60
2023-04-02T10:57:43.364Z,18.89
2023-04-02T11:00:47.390Z,18.46
2023-04-02T11:03:57.818Z,18.89
2023-04-02T11:07:17.640Z,18.27
2023-04-02T11:10:21.159Z,18.87
2023-04-02T11:13:49.302Z,18.59
2023-04-02T11:16:53.179Z,17.73
2023-04-02T11:19:56.672Z,17.12
2023-04-02T11:23:27.970Z,16.05
2023-04-02T11:26:47.497Z,15.07
2023-04-02T11:30:08.238Z,14.45
2023-04-02T11:33:38.414Z,14.13
2023-04-02T11:36:51.059Z,14.27
2023-04-02T11:39:55.230Z,14.66
2023-04-02T11:43:38.156Z,15.36
2023-04-02T11:46:42.418Z,15.87
2023-04-02T11:50:01.306Z,16.27
2023-04-02T11:53:28.622Z,16.48
2023-04-02T11:56:52.410Z,16.36
2023-04-02T12:00:08.728Z,16.58
2023-04-02T12:03:36.765Z,17.11
2023-04-02T12:06:47.373Z,16.83
2023-04-02T12:09:55.706Z,16.67
2023-04-02T12:12:57.516Z,16.31
2023-04-02T12:15:59.499Z,16.41
2023-04-02T12:19:01.860Z,16.84
2023-04-02T12:22:03.808Z,16.89
2023-04-02T12:25:22.416Z,16.77
2023-04-02T12:28:25.237Z,17.08
2023-04-02T12:31:27.532Z,16.91
2023-04-02T12:34:30.313Z,17.01
2023-04-02T12:37:32.843Z,16.30
2023-04-02T12:40:34.818Z,16.27
2023-04-02T12:43:38.069Z,15.79
2023-04-02T12:46:41.053Z,14.80
2023-04-02T12:49:44.091Z,14.52
2023-04-02T12:52:55.733Z,14.41
2023-04-02T12:55:57.514Z,14.34
2023-04-02T12:59:01.414Z,13.98
2023-04-02T13:02:18.584Z,13.87
2023-04-02T13:05:56.996Z,13.94
2023-04-02T13:09:01.727Z,13.72
2023-04-02T13:12:03.815Z,13.72
2023-04-02T13:15:20.900Z,13.77
2023-04-02T13:18:23.480Z,13.89
2023-04-02T13:21:31.721Z,13.99
2023-04-02T13:24:34.142Z,13.65
2023-04-02T13:27:36.001Z,14.40
2023-04-02T13:30:37.900Z,14.85
2023-04-02T13:33:39.741Z,14.85
2023-04-02T13:36:41.412Z,14.55
2023-04-02T13:39:44.464Z,14.42
2023-04-02T13:42:47.686Z,14.76
2023-04-02T13:45:52.440Z,15.12
2023-04-02T13:48:55.430Z,15.45
2023-04-02T13:52:03.521Z,14.99
2023-04-02T13:55:06.163Z,15.05
2023-04-02T13:58:09.665Z,15.05
2023-04-02T14:01:12.588Z,15.37
2023-04-02T14:04:22.352Z,15.68
2023-04-02T14:07:47.810Z,15.24
2023-04-02T14:11:28.547Z,15.95
2023-04-02T14:14:45.098Z,17.05
2023-04-02T14:18:12.016Z,16.86
2023-04-02T14:21:32.769Z,15.91
2023-04-02T14:24:48.862Z,16.25
2023-04-02T14:28:28.181Z,16.22
2023-04-02T14:31:34.152Z,16.90
2023-04-02T14:34:41.773Z,16.85
2023-04-02T14:37:59.032Z,17.04
2023-04-02T14:41:10.804Z,17.02
2023-04-02T14:44:13.392Z,16.63
2023-04-02T14:47:24.579Z,16.66
2023-04-02T14:50:41.431Z,15.98
2023-04-02T14:54:15.364Z,16.30
2023-04-02T14:57:26.451Z,16.05
2023-04-02T15:00:44.243Z,15.45
2023-04-02T15:03:55.081Z,15.01
2023-04-02T15:07:03.259Z,14.84
2023-04-02T15:10:20.829Z,14.61
2023-04-02T15:13:28.820Z,14.57
2023-04-02T15:16:33.156Z,14.60
2023-04-02T15:19:35.193Z,14.02
2023-04-02T15:23:03.800Z,13.78
2023-04-02T15:26:20.315Z,13.45
2023-04-02T15:29:37.196Z,12.95
2023-04-02T15:32:40.890Z,12.74
2023-04-02T15:35:58.416Z,12.46
2023-04-02T15:39:28.535Z,12.36
2023-04-02T15:42:46.171Z,12.13
2023-04-02T15:46:07.944Z,11.79
2023-04-02T15:49:26.441Z,11.84
2023-04-02T15:52:47.375Z,11.69
2023-04-02T15:56:11.576Z,11.75
2023-04-02T15:59:19.412Z,11.73
2023-04-02T16:02:51.728Z,11.70
2023-04-02T16:06:17.171Z,11.80
2023-04-02T16:09:47.948Z,11.61
2023-04-02T16:12:52.667Z,11.32
2023-04-02T16:16:22.808Z,11.44
2023-04-02T16:19:40.018Z,11.12
2023-04-02T16:23:00.018Z,11.28
2023-04-02T16:26:24.369Z,11.28
2023-04-02T16:29:37.967Z,11.08
2023-04-02T16:33:00.306Z,10.92
2023-04-02T16:36:46.468Z,10.87
2023-04-02T16:39:55.080Z,11.02
2023-04-02T16:43:07.652Z,10.87
2023-04-02T16:46:38.164Z,10.79
2023-04-02T16:49:48.864Z,10.91
2023-04-02T16:53:35.492Z,10.82
2023-04-02T16:56:53.228Z,10.32
2023-04-02T17:00:36.706Z,10.05
2023-04-02T17:04:04.111Z,10.02
2023-04-02T17:07:18.577Z,10.14
2023-04-02T17:10:31.388Z,10.57
2023-04-02T17:14:06.468Z,10.59
2023-04-02T17:17:15.198Z,10.74
2023-04-02T17:20:25.218Z,10.26
2023-04-02T17:23:30.475Z,10.15
2023-04-02T17:26:38.011Z,10.13
2023-04-02T17:29:42.667Z,10.12
2023-04-02T17:32:45.486Z,10.01
2023-04-02T17:36:06.643Z,10.38
2023-04-02T17:39:36.215Z,10.18
2023-04-02T17:43:07.653Z,10.10
2023-04-02T17:46:35.490Z,10.10
2023-04-02T17:50:15.347Z,9.81
2023-04-02T17:53:39.644Z,9.82
2023-04-02T17:57:29.961Z,9.67
2023-04-02T18:01:03.104Z,9.59
2023-04-02T18:04:28.674Z,9.61
2023-04-02T18:07:55.053Z,9.47
2023-04-02T18:11:01.073Z,9.35
2023-04-02T18:14:11.863Z,9.37
2023-04-02T18:17:26.502Z,9.26
2023-04-02T18:20:52.513Z,9.73
2023-04-02T18:23:54.992Z,9.80
2023-04-02T18:26:58.265Z,9.81
2023-04-02T18:30:04.325Z,9.77
2023-04-02T18:33:45.205Z,10.04
2023-04-02T18:37:09.934Z,10.00
2023-04-02T18:40:39.686Z,10.28
2023-04-02T18:44:02.672Z,10.20
2023-04-02T18:47:30.599Z,10.14
2023-04-02T18:50:44.966Z,10.33
2023-04-02T18:53:49.780Z,10.42
2023-04-02T18:56:52.361Z,10.35
2023-04-02T19:00:03.207Z,9.85
2023-04-02T19:03:37.405Z,9.53
2023-04-02T19:06:45.028Z,9.31
2023-04-02T19:09:50.045Z,9.24
2023-04-02T19:12:52.656Z,9.26
2023-04-02T19:15:56.469Z,9.14
2023-04-02T19:19:11.742Z,9.23
2023-04-02T19:22:30.816Z,9.19
2023-04-02T19:25:51.818Z,8.99
2023-04-02T19:29:25.730Z,8.69
2023-04-02T19:33:04.249Z,8.53
2023-04-02T19:36:28.254Z,8.40
2023-04-02T19:39:58.070Z,8.44
2023-04-02T19:43:03.346Z,8.25
2023-04-02T19:46:11.182Z,8.34
2023-04-02T19:49:23.278Z,8.02
2023-04-02T19:52:26.514Z,8.17
2023-04-02T19:55:29.613Z,8.39
2023-04-02T19:58:35.046Z,8.20
2023-04-02T20:01:37.614Z,8.25
2023-04-02T20:04:40.217Z,8.21
2023-04-02T20:07:42.729Z,8.05
2023-04-02T20:10:45.979Z,7.95
2023-04-02T20:13:52.517Z,7.96
2023-04-02T20:16:55.297Z,8.10
2023-04-02T20:19:57.900Z,8.05
2023-04-02T20:23:02.440Z,7.82
2023-04-02T20:26:06.280Z,7.59
2023-04-02T20:29:08.849Z,7.45
2023-04-02T20:32:11.066Z,7.48
2023-04-02T20:35:13.740Z,7.58
2023-04-02T20:38:16.037Z,7.93
2023-04-02T20:41:19.465Z,7.80
2023-04-02T20:44:22.058Z,7.54
2023-04-02T20:47:23.916Z,7.44
2023-04-02T20:50:25.852Z,7.25
2023-04-02T20:53:32.980Z,7.32
2023-04-02T20:56:34.857Z,7.13
2023-04-02T20:59:36.541Z,7.11
2023-04-02T21:02:38.328Z,7.06
2023-04-02T21:05:44.720Z,6.96
2023-04-02T21:08:47.660Z,7.03
2023-04-02T21:11:49.966Z,7.00
2023-04-02T21:14:57.069Z,6.91
2023-04-02T21:17:58.867Z,6.86
2023-04-02T21:21:03.226Z,6.83
2023-04-02T21:24:07.357Z,6.92
2023-04-02T21:27:09.015Z,6.90
2023-04-02T21:30:11.238Z,6.99
2023-04-02T21:33:12.950Z,6.95
2023-04-02T21:36:20.029Z,6.95
2023-04-02T21:39:23.860Z,7.03
2023-04-02T21:42:26.240Z,6.98
2023-04-02T21:45:28.335Z,7.08
2023-04-02T21:48:31.538Z,7.03
2023-04-02T21:51:34.428Z,6.99
2023-04-02T21:54:36.090Z,6.96
2023-04-02T21:57:37.961Z,6.90
2023-04-02T22:00:39.715Z,6.95
2023-04-02T22:03:41.408Z,7.12
2023-04-02T22:06:44.380Z,6.93
2023-04-02T22:09:46.000Z,6.87
2023-04-02T22:12:47.664Z,7.74
2023-04-02T22:15:49.437Z,7.32
2023-04-02T22:18:52.605Z,7.27
2023-04-02T22:21:54.308Z,7.34
2023-04-02T22:24:56.470Z,7.40
2023-04-02T22:27:58.158Z,7.43
2023-04-02T22:31:20.626Z,7.47
2023-04-02T22:34:22.372Z,7.38
2023-04-02T22:37:24.255Z,7.51
2023-04-02T22:40:25.997Z,7.51
2023-04-02T22:43:27.759Z,7.41
2023-04-02T22:46:30.413Z,7.49
2023-04-02T22:49:32.403Z,7.57
2023-04-02T22:52:34.041Z,7.64
2023-04-02T22:55:35.939Z,7.73
2023-04-02T22:58:38.401Z,7.94
2023-04-02T23:01:40.877Z,7.88
2023-04-02T23:04:42.860Z,7.91
2023-04-02T23:07:44.560Z,8.15
2023-04-02T23:10:46.349Z,8.07
2023-04-02T23:13:50.582Z,7.32
2023-04-02T23:16:52.245Z,7.76
2023-04-02T23:19:53.856Z,7.75
2023-04-02T23:22:55.755Z,7.58
2023-04-02T23:26:18.885Z,7.21
2023-04-02T23:29:20.529Z,7.25
2023-04-02T23:32:22.762Z,7.23
2023-04-02T23:35:24.698Z,7.44
2023-04-02T23:38:27.070Z,7.58
2023-04-02T23:41:30.510Z,7.65
2023-04-02T23:44:32.249Z,7.79
2023-04-02T23:47:33.934Z,7.76
2023-04-02T23:50:35.977Z,7.87
2023-04-02T23:53:37.756Z,7.59
2023-04-02T23:56:39.967Z,7.79
2023-04-02T23:59:41.706Z,7.07
